Time;durP1;ratioP1;P1;durP2;ratioP2;P2;SDS_P1;SDS_P2;PMS_P1;PMS_P2;Temp;Humidity;BMP_temperature;BMP_pressure;BME280_temperature;BME280_humidity;BME280_pressure;Samples;Min_cycle;Max_cycle;Signal;HPM_P1;HPM_P2
2023/08/22 00:02:10;;;;;;;8.27;4.68;;;22.30;99.90;;;;;;5086527;28;20503;-70
2023/08/22 00:04:58;;;;;;;9.52;4.78;;;22.40;99.90;;;;;;5100941;28;20219;-69
2023/08/22 00:07:47;;;;;;;8.07;4.80;;;22.30;99.90;;;;;;5082518;28;20226;-70
2023/08/22 00:10:36;;;;;;;10.80;5.03;;;22.30;99.90;;;;;;5097040;28;20219;-71
2023/08/22 00:13:25;;;;;;;8.57;4.90;;;22.30;99.90;;;;;;5083594;28;20227;-70
2023/08/22 00:16:16;;;;;;;10.68;5.25;;;22.30;99.90;;;;;;5087715;28;20712;-69
2023/08/22 00:19:05;;;;;;;7.82;4.70;;;22.20;99.90;;;;;;5071425;28;20592;-70
2023/08/22 00:21:53;;;;;;;9.25;4.65;;;22.10;99.90;;;;;;5074885;28;20382;-69
2023/08/22 00:24:42;;;;;;;7.93;4.63;;;22.20;99.90;;;;;;5076577;28;20714;-70
2023/08/22 00:27:31;;;;;;;8.10;4.28;;;22.00;99.90;;;;;;5076024;28;20220;-70
2023/08/22 00:30:20;;;;;;;5.82;4.20;;;21.90;99.90;;;;;;5067834;28;20284;-70
2023/08/22 00:33:10;;;;;;;10.13;4.25;;;22.00;99.90;;;;;;5076082;28;20965;-70
2023/08/22 00:35:59;;;;;;;6.18;3.92;;;21.80;99.90;;;;;;5057627;28;20219;-71
2023/08/22 00:38:47;;;;;;;9.65;4.22;;;21.70;99.90;;;;;;5075773;28;20302;-71
2023/08/22 00:41:36;;;;;;;6.35;3.95;;;21.70;99.90;;;;;;5090001;28;20214;-71
2023/08/22 00:44:25;;;;;;;6.25;3.47;;;21.80;99.90;;;;;;5081928;28;20251;-70
2023/08/22 00:47:16;;;;;;;7.47;3.60;;;21.70;99.90;;;;;;5082461;28;20302;-68
2023/08/22 00:50:07;;;;;;;5.63;3.42;;;21.50;99.90;;;;;;5061761;28;20223;-69
2023/08/22 00:52:56;;;;;;;10.18;3.85;;;21.60;99.90;;;;;;5071606;28;20260;-71
2023/08/22 00:55:45;;;;;;;9.40;3.50;;;21.60;99.90;;;;;;5069764;28;20223;-71
2023/08/22 00:58:34;;;;;;;8.60;3.78;;;21.60;99.90;;;;;;5081642;28;20640;-70
2023/08/22 01:01:23;;;;;;;5.60;3.05;;;21.60;99.90;;;;;;5098461;28;20330;-71
2023/08/22 01:04:11;;;;;;;6.65;3.13;;;21.50;99.90;;;;;;5092727;28;20229;-70
2023/08/22 01:07:09;;;;;;;7.30;3.03;;;21.40;99.90;;;;;;5060060;28;20228;-70
2023/08/22 01:10:05;;;;;;;6.32;3.00;;;21.50;99.90;;;;;;5058224;28;20243;-70
2023/08/22 01:13:02;;;;;;;8.48;2.90;;;21.60;99.90;;;;;;5095259;28;20215;-71
2023/08/22 01:15:51;;;;;;;6.97;3.00;;;21.60;99.90;;;;;;5081188;28;20349;-72
2023/08/22 01:18:41;;;;;;;10.77;3.45;;;21.60;99.90;;;;;;5088802;28;20245;-71
2023/08/22 01:21:33;;;;;;;7.22;2.90;;;21.40;99.90;;;;;;5078773;28;20226;-71
2023/08/22 01:24:26;;;;;;;7.57;2.65;;;21.50;99.90;;;;;;5079883;28;20265;-71
2023/08/22 01:27:16;;;;;;;5.63;2.40;;;21.50;99.90;;;;;;5078516;28;20247;-71
2023/08/22 01:30:13;;;;;;;3.85;2.28;;;21.30;99.90;;;;;;5074227;28;20219;-71
2023/08/22 01:33:06;;;;;;;6.78;2.40;;;21.40;99.90;;;;;;5091374;28;20364;-71
2023/08/22 01:35:57;;;;;;;4.63;2.30;;;21.40;99.90;;;;;;5079041;28;20215;-69
2023/08/22 01:38:50;;;;;;;6.28;2.58;;;21.30;99.90;;;;;;5082987;28;20222;-71
2023/08/22 01:41:40;;;;;;;4.95;2.47;;;21.40;99.90;;;;;;5079844;28;20238;-73
2023/08/22 01:44:29;;;;;;;6.15;2.28;;;21.30;99.90;;;;;;5083839;28;20238;-71
2023/08/22 01:47:19;;;;;;;3.72;2.60;;;21.40;99.90;;;;;;5071762;28;20279;-72
2023/08/22 01:50:09;;;;;;;6.85;2.80;;;21.20;99.90;;;;;;5085471;28;20950;-72
2023/08/22 01:52:58;;;;;;;6.18;2.50;;;21.20;99.90;;;;;;5079507;28;20226;-70
2023/08/22 01:55:46;;;;;;;4.72;2.20;;;21.20;99.90;;;;;;5092450;28;20326;-70
2023/08/22 01:58:39;;;;;;;4.13;2.30;;;21.20;99.90;;;;;;5095812;28;20643;-71
2023/08/22 02:01:28;;;;;;;7.10;2.50;;;21.30;99.90;;;;;;5090641;28;20222;-72
2023/08/22 02:04:17;;;;;;;7.25;2.50;;;21.20;99.90;;;;;;5093375;28;20222;-72
2023/08/22 02:07:06;;;;;;;5.13;2.10;;;21.10;99.90;;;;;;5093129;28;20211;-72
2023/08/22 02:09:55;;;;;;;7.45;2.70;;;21.20;99.90;;;;;;5078663;28;20231;-71
2023/08/22 02:12:44;;;;;;;6.88;2.47;;;21.30;99.90;;;;;;5079468;28;20219;-70
2023/08/22 02:15:34;;;;;;;8.05;2.58;;;21.30;99.90;;;;;;5080887;28;21168;-71
2023/08/22 02:18:23;;;;;;;6.53;2.33;;;21.30;99.90;;;;;;5079559;28;20327;-71
2023/08/22 02:21:12;;;;;;;4.82;2.20;;;21.40;99.90;;;;;;5096729;28;20238;-71
2023/08/22 02:24:03;;;;;;;6.78;2.30;;;21.30;99.90;;;;;;5084793;28;20226;-71
2023/08/22 02:26:53;;;;;;;6.30;2.45;;;21.00;99.90;;;;;;5102716;28;20685;-70
2023/08/22 02:29:42;;;;;;;7.10;2.42;;;21.10;99.90;;;;;;5083552;28;20219;-71
2023/08/22 02:32:35;;;;;;;4.30;2.20;;;21.10;99.90;;;;;;5076255;28;20231;-72
2023/08/22 02:35:25;;;;;;;4.90;2.38;;;21.20;99.90;;;;;;5082352;28;20222;-72
2023/08/22 02:38:14;;;;;;;4.80;2.03;;;21.30;99.90;;;;;;5083046;28;20227;-70
2023/08/22 02:41:03;;;;;;;6.25;2.28;;;21.20;99.90;;;;;;5080853;28;20216;-71
2023/08/22 02:43:52;;;;;;;4.93;2.28;;;21.20;99.90;;;;;;5081674;28;20219;-72
2023/08/22 02:46:41;;;;;;;4.65;2.35;;;21.20;99.90;;;;;;5079275;28;20218;-71
2023/08/22 02:49:31;;;;;;;6.90;3.10;;;21.20;99.90;;;;;;5083282;28;20223;-71
2023/08/22 02:52:20;;;;;;;4.95;2.40;;;21.10;99.90;;;;;;5080763;28;20219;-73
2023/08/22 02:55:09;;;;;;;6.32;2.50;;;21.10;99.90;;;;;;5096578;28;20965;-72
2023/08/22 02:57:58;;;;;;;4.88;2.45;;;21.20;99.90;;;;;;5088002;28;20214;-71
2023/08/22 03:00:47;;;;;;;6.97;2.42;;;21.20;99.90;;;;;;5099489;28;20223;-70
2023/08/22 03:03:36;;;;;;;6.40;2.38;;;21.10;99.90;;;;;;5096639;28;20231;-70
2023/08/22 03:06:26;;;;;;;6.80;2.53;;;21.10;99.90;;;;;;5099326;28;20223;-71
2023/08/22 03:09:15;;;;;;;7.68;2.65;;;21.10;99.90;;;;;;5086112;28;20658;-71
2023/08/22 03:12:05;;;;;;;5.85;2.65;;;21.10;99.90;;;;;;5087757;28;20227;-70
2023/08/22 03:14:54;;;;;;;5.05;2.53;;;21.00;99.90;;;;;;5080692;28;20296;-70
2023/08/22 03:17:43;;;;;;;13.77;3.13;;;20.90;99.90;;;;;;5079278;28;20689;-69
2023/08/22 03:20:32;;;;;;;7.60;3.00;;;21.00;99.90;;;;;;5081376;28;20218;-70
2023/08/22 03:23:24;;;;;;;9.73;3.45;;;20.90;99.90;;;;;;5084657;28;20223;-68
2023/08/22 03:26:13;;;;;;;12.55;3.60;;;20.80;99.90;;;;;;5085733;28;20215;-69
2023/08/22 03:29:03;;;;;;;7.70;2.95;;;20.80;99.90;;;;;;5077584;28;20220;-69
2023/08/22 03:31:53;;;;;;;8.90;3.13;;;20.80;99.90;;;;;;5083340;28;20283;-68
2023/08/22 03:34:42;;;;;;;6.30;3.10;;;20.80;99.90;;;;;;5079502;28;20218;-68
2023/08/22 03:37:30;;;;;;;12.23;3.53;;;20.80;99.90;;;;;;5079859;28;20264;-71
2023/08/22 03:40:21;;;;;;;10.18;3.83;;;20.80;99.90;;;;;;5083176;28;20231;-70
2023/08/22 03:43:10;;;;;;;9.20;3.65;;;20.70;99.90;;;;;;5079727;28;20224;-70
2023/08/22 03:46:00;;;;;;;10.73;3.50;;;20.80;99.90;;;;;;5097624;28;20223;-70
2023/08/22 03:48:49;;;;;;;10.70;3.90;;;20.70;99.90;;;;;;5097884;28;20302;-69
2023/08/22 03:51:39;;;;;;;7.85;3.58;;;20.70;99.90;;;;;;5082642;28;20309;-70
2023/08/22 03:54:28;;;;;;;8.50;3.67;;;20.70;99.90;;;;;;5084693;28;20215;-68
2023/08/22 03:57:18;;;;;;;9.63;3.60;;;20.80;99.90;;;;;;5090013;28;20465;-69
2023/08/22 04:00:09;;;;;;;11.43;3.95;;;20.80;99.90;;;;;;5074906;28;20952;-70
2023/08/22 04:03:07;;;;;;;9.45;4.13;;;20.70;99.90;;;;;;5067732;27;20269;-71
2023/08/22 04:05:57;;;;;;;10.20;4.03;;;20.60;99.90;;;;;;5081276;28;20229;-71
2023/08/22 04:08:50;;;;;;;9.18;3.92;;;20.70;99.90;;;;;;5093602;28;20219;-71
2023/08/22 04:11:39;;;;;;;15.75;4.07;;;20.70;99.90;;;;;;5075978;28;20235;-71
2023/08/22 04:14:30;;;;;;;8.93;4.18;;;20.80;99.90;;;;;;5095159;28;20223;-70
2023/08/22 04:17:19;;;;;;;10.20;3.60;;;20.70;99.90;;;;;;5089594;28;20290;-72
2023/08/22 04:20:09;;;;;;;6.68;3.85;;;20.70;99.90;;;;;;5080212;28;20318;-71
2023/08/22 04:22:58;;;;;;;9.45;3.67;;;20.70;99.90;;;;;;5081162;28;20223;-70
2023/08/22 04:25:47;;;;;;;8.93;3.95;;;20.70;99.90;;;;;;5072084;27;20220;-71
2023/08/22 04:28:40;;;;;;;8.77;4.28;;;20.80;99.90;;;;;;5076267;28;20230;-70
2023/08/22 04:31:31;;;;;;;7.20;4.10;;;20.80;99.90;;;;;;5077842;28;20231;-70
2023/08/22 04:34:20;;;;;;;8.68;4.20;;;20.60;99.90;;;;;;5085378;28;20268;-70
2023/08/22 04:37:19;;;;;;;7.22;4.00;;;20.70;99.90;;;;;;5085371;28;20223;-72
2023/08/22 04:40:08;;;;;;;7.93;4.10;;;20.80;99.90;;;;;;5077999;28;20223;-72
2023/08/22 04:43:08;;;;;;;9.90;4.00;;;20.90;99.90;;;;;;5098393;28;20215;-71
2023/08/22 04:45:57;;;;;;;11.80;4.13;;;20.90;99.90;;;;;;5078024;28;20239;-72
2023/08/22 04:48:51;;;;;;;12.25;4.13;;;21.10;99.90;;;;;;5083658;28;20219;-69
2023/08/22 04:51:39;;;;;;;7.95;4.15;;;21.20;99.90;;;;;;5085845;28;20227;-71
2023/08/22 04:54:28;;;;;;;7.80;3.92;;;21.10;99.90;;;;;;5093007;28;20220;-72
2023/08/22 04:57:20;;;;;;;9.15;4.05;;;21.20;99.90;;;;;;5086138;28;20230;-73
2023/08/22 05:00:10;;;;;;;8.77;4.15;;;21.40;99.90;;;;;;5077606;28;20265;-71
2023/08/22 05:02:59;;;;;;;9.45;4.00;;;21.40;99.90;;;;;;5059771;28;20239;-71
2023/08/22 05:05:52;;;;;;;10.18;4.22;;;21.40;99.90;;;;;;5080102;28;21673;-72
2023/08/22 05:08:41;;;;;;;7.82;4.10;;;21.50;99.90;;;;;;5071387;28;20257;-72
2023/08/22 05:11:32;;;;;;;16.67;10.70;;;21.40;99.90;;;;;;5072952;28;20309;-72
2023/08/22 05:14:21;;;;;;;8.30;4.18;;;21.60;99.90;;;;;;5074711;28;20222;-73
2023/08/22 05:17:10;;;;;;;9.52;3.70;;;21.70;99.90;;;;;;5078040;28;20268;-72
2023/08/22 05:20:00;;;;;;;11.75;4.03;;;21.70;99.90;;;;;;5063113;28;20236;-71
2023/08/22 05:22:51;;;;;;;8.85;3.85;;;21.70;99.90;;;;;;5078594;28;20768;-71
2023/08/22 05:25:40;;;;;;;8.60;4.00;;;21.80;99.90;;;;;;5085202;28;20226;-70
2023/08/22 05:28:29;;;;;;;8.13;4.03;;;21.90;99.90;;;;;;5081842;28;20222;-71
2023/08/22 05:31:22;;;;;;;7.07;4.30;;;21.90;99.90;;;;;;5070439;28;20265;-70
2023/08/22 05:34:11;;;;;;;7.20;3.60;;;22.10;99.90;;;;;;5069917;28;20274;-70
2023/08/22 05:37:01;;;;;;;11.35;3.78;;;22.70;99.90;;;;;;5078704;28;20211;-71
2023/08/22 05:39:52;;;;;;;11.68;4.00;;;23.80;99.90;;;;;;5081939;28;20238;-72
2023/08/22 05:42:41;;;;;;;7.75;3.63;;;24.60;99.90;;;;;;5072709;28;20219;-71
2023/08/22 05:45:30;;;;;;;9.27;3.20;;;25.10;99.90;;;;;;5084948;28;20222;-70
2023/08/22 05:48:20;;;;;;;6.55;3.20;;;24.70;99.90;;;;;;5070030;28;20216;-72
2023/08/22 05:51:09;;;;;;;7.28;3.08;;;24.00;99.90;;;;;;5100001;28;20305;-70
2023/08/22 05:53:59;;;;;;;8.40;3.30;;;23.50;99.90;;;;;;5079761;28;20274;-71
2023/08/22 05:56:51;;;;;;;7.50;2.92;;;23.30;99.90;;;;;;5086460;28;20210;-71
2023/08/22 05:59:40;;;;;;;5.22;2.60;;;23.00;99.90;;;;;;5092206;28;21087;-69
2023/08/22 06:02:29;;;;;;;8.32;2.70;;;22.80;99.90;;;;;;5081748;28;20227;-68
2023/08/22 06:05:18;;;;;;;6.90;2.83;;;22.70;99.90;;;;;;5069675;28;20263;-69
2023/08/22 06:08:07;;;;;;;9.85;2.78;;;22.80;99.90;;;;;;5083710;28;20225;-70
2023/08/22 06:10:55;;;;;;;8.43;2.55;;;22.70;99.90;;;;;;5093862;28;20231;-71
2023/08/22 06:13:47;;;;;;;7.63;2.40;;;22.40;99.90;;;;;;5076767;28;20808;-71
2023/08/22 06:16:39;;;;;;;9.73;2.75;;;22.20;99.90;;;;;;5077862;28;20228;-72
2023/08/22 06:19:28;;;;;;;9.73;2.72;;;22.40;99.90;;;;;;5090844;28;20322;-71
2023/08/22 06:22:17;;;;;;;8.85;2.63;;;22.50;99.90;;;;;;5079348;28;20215;-72
2023/08/22 06:25:07;;;;;;;8.60;2.70;;;22.60;99.90;;;;;;5100403;28;20218;-72
2023/08/22 06:27:56;;;;;;;7.93;2.83;;;22.50;99.90;;;;;;5066391;28;20227;-72
2023/08/22 06:30:46;;;;;;;8.20;2.92;;;22.50;99.90;;;;;;5079809;28;20219;-72
2023/08/22 06:33:35;;;;;;;9.07;3.10;;;22.50;99.90;;;;;;5077564;28;20261;-72
2023/08/22 06:36:26;;;;;;;8.82;2.80;;;22.30;99.90;;;;;;5079534;28;20231;-72
2023/08/22 06:39:16;;;;;;;8.60;2.90;;;22.20;99.90;;;;;;5080736;28;20220;-72
2023/08/22 06:42:05;;;;;;;9.85;2.67;;;23.40;99.90;;;;;;5064428;28;20590;-72
2023/08/22 06:44:57;;;;;;;10.45;3.05;;;23.80;99.90;;;;;;5070101;28;20314;-73
2023/08/22 06:47:47;;;;;;;6.85;2.67;;;23.60;99.90;;;;;;5084810;28;20755;-74
2023/08/22 06:50:36;;;;;;;8.98;2.78;;;23.50;99.90;;;;;;5080971;28;20777;-70
2023/08/22 06:53:25;;;;;;;9.38;2.75;;;23.50;99.90;;;;;;5089511;28;20463;-70
2023/08/22 06:56:14;;;;;;;13.13;3.05;;;23.60;99.90;;;;;;5100296;28;20877;-72
2023/08/22 06:59:03;;;;;;;8.93;3.22;;;23.40;99.90;;;;;;5089594;28;20246;-75
2023/08/22 07:01:52;;;;;;;10.30;3.15;;;23.40;99.90;;;;;;5095597;28;21008;-74
2023/08/22 07:04:42;;;;;;;10.75;3.30;;;23.60;99.90;;;;;;5092984;28;20265;-75
2023/08/22 07:07:32;;;;;;;7.05;2.63;;;23.40;99.90;;;;;;5080662;28;20219;-72
2023/08/22 07:10:21;;;;;;;7.03;3.08;;;23.60;99.90;;;;;;5079883;27;20565;-68
2023/08/22 07:13:13;;;;;;;8.70;2.78;;;23.80;99.90;;;;;;5088507;28;20333;-68
2023/08/22 07:16:02;;;;;;;9.15;3.20;;;24.00;99.90;;;;;;5093392;28;20626;-72
2023/08/22 07:18:51;;;;;;;6.25;2.80;;;24.20;99.90;;;;;;5097391;28;20398;-72
2023/08/22 07:21:41;;;;;;;7.60;2.63;;;24.30;99.90;;;;;;5095961;28;20307;-73
2023/08/22 07:24:30;;;;;;;9.25;2.70;;;24.30;99.90;;;;;;5076715;28;20218;-72
2023/08/22 07:27:22;;;;;;;6.90;2.80;;;24.30;99.90;;;;;;5084268;28;20585;-73
2023/08/22 07:30:12;;;;;;;12.75;3.33;;;24.50;99.90;;;;;;5084631;28;20238;-73
2023/08/22 07:33:00;;;;;;;10.27;3.10;;;24.50;99.90;;;;;;5097656;28;20219;-72
2023/08/22 07:35:50;;;;;;;7.72;2.67;;;24.70;99.90;;;;;;5079456;28;20266;-73
2023/08/22 07:38:40;;;;;;;11.95;2.80;;;24.80;99.90;;;;;;5085521;28;20236;-74
2023/08/22 07:41:29;;;;;;;7.82;2.80;;;24.90;99.90;;;;;;5093781;28;20485;-73
2023/08/22 07:44:18;;;;;;;15.93;3.22;;;24.80;99.90;;;;;;5084829;28;20258;-72
2023/08/22 07:47:07;;;;;;;12.55;2.97;;;24.90;99.90;;;;;;5069216;28;20230;-73
2023/08/22 07:49:55;;;;;;;8.13;2.78;;;24.90;99.90;;;;;;5084945;28;20235;-73
2023/08/22 07:52:44;;;;;;;7.40;3.00;;;25.30;99.90;;;;;;5087013;28;20222;-72
2023/08/22 07:55:35;;;;;;;7.72;2.45;;;25.50;99.90;;;;;;5083616;28;20395;-73
2023/08/22 07:58:24;;;;;;;5.28;2.28;;;25.80;99.90;;;;;;5100529;28;20226;-76
2023/08/22 08:01:13;;;;;;;7.75;2.30;;;26.00;99.90;;;;;;5085817;28;20230;-71
2023/08/22 08:04:02;;;;;;;10.02;2.55;;;26.10;99.90;;;;;;5081741;28;20223;-71
2023/08/22 08:06:51;;;;;;;5.22;2.10;;;26.10;99.90;;;;;;5068557;28;20236;-72
2023/08/22 08:09:40;;;;;;;7.70;2.22;;;26.10;99.90;;;;;;5092225;28;20223;-72
2023/08/22 08:12:31;;;;;;;8.38;2.40;;;26.70;99.90;;;;;;5081528;28;20815;-72
2023/08/22 08:15:20;;;;;;;5.03;2.22;;;27.10;99.90;;;;;;5097456;28;20335;-73
2023/08/22 08:18:10;;;;;;;7.22;1.80;;;27.50;99.90;;;;;;5090862;28;20368;-71
2023/08/22 08:20:59;;;;;;;5.80;1.85;;;27.70;99.90;;;;;;5083522;28;20793;-71
2023/08/22 08:23:48;;;;;;;6.35;2.30;;;28.10;99.90;;;;;;5078640;28;20610;-75
2023/08/22 08:26:38;;;;;;;9.95;2.50;;;28.40;99.90;;;;;;5096216;28;20371;-71
2023/08/22 08:29:28;;;;;;;7.38;2.80;;;28.80;97.90;;;;;;5079220;28;20281;-72
2023/08/22 08:32:17;;;;;;;6.93;2.13;;;28.90;96.20;;;;;;5079455;28;20223;-72
2023/08/22 08:35:07;;;;;;;4.38;2.00;;;29.30;96.40;;;;;;5057872;28;20669;-72
2023/08/22 08:37:57;;;;;;;4.07;1.88;;;29.60;95.10;;;;;;5076118;28;20215;-70
2023/08/22 08:40:47;;;;;;;9.57;2.78;;;30.00;92.00;;;;;;5068331;28;20229;-72
2023/08/22 08:43:36;;;;;;;5.80;2.28;;;30.30;92.10;;;;;;5093920;28;20599;-73
2023/08/22 08:46:29;;;;;;;6.35;2.80;;;30.40;90.60;;;;;;5081289;28;20222;-72
2023/08/22 08:49:21;;;;;;;6.10;2.17;;;30.70;90.40;;;;;;5080700;28;20222;-71
2023/08/22 08:52:12;;;;;;;5.28;2.20;;;30.80;89.40;;;;;;5094765;28;20221;-72
2023/08/22 08:55:03;;;;;;;8.20;2.75;;;30.90;87.40;;;;;;5078036;28;20222;-72
2023/08/22 08:57:53;;;;;;;6.13;2.35;;;31.30;87.10;;;;;;5079430;28;20218;-73
2023/08/22 09:00:42;;;;;;;4.30;1.65;;;31.50;84.30;;;;;;5091746;28;20223;-72
2023/08/22 09:03:32;;;;;;;6.05;3.25;;;31.30;85.40;;;;;;5090996;28;20580;-72
2023/08/22 09:06:21;;;;;;;8.80;2.28;;;31.60;80.90;;;;;;5068976;28;20214;-72
2023/08/22 09:09:11;;;;;;;4.60;1.90;;;31.70;77.00;;;;;;5062380;28;21082;-72
2023/08/22 09:12:07;;;;;;;6.07;2.08;;;31.40;81.20;;;;;;5076440;28;20214;-74
2023/08/22 09:14:56;;;;;;;5.32;2.30;;;31.80;81.00;;;;;;5095352;28;20214;-73
2023/08/22 09:17:45;;;;;;;6.32;3.08;;;31.90;76.10;;;;;;5071066;28;20223;-74
2023/08/22 09:20:36;;;;;;;5.90;2.28;;;31.70;75.90;;;;;;5082342;28;20214;-75
2023/08/22 09:23:28;;;;;;;5.20;2.17;;;32.60;70.10;;;;;;5078064;28;20223;-76
2023/08/22 09:26:22;;;;;;;6.53;2.10;;;33.00;67.30;;;;;;5079066;28;20270;-78
2023/08/22 09:29:11;;;;;;;5.88;2.05;;;33.30;63.30;;;;;;5099150;28;20217;-75
2023/08/22 09:32:05;;;;;;;4.80;2.00;;;33.70;59.80;;;;;;5082802;28;20279;-76
2023/08/22 09:34:55;;;;;;;5.75;2.08;;;33.90;57.50;;;;;;5084953;28;20338;-75
2023/08/22 09:37:46;;;;;;;5.35;1.88;;;33.60;57.50;;;;;;5096190;28;20222;-74
2023/08/22 09:40:36;;;;;;;8.10;2.03;;;33.80;57.50;;;;;;5075513;28;20605;-75
2023/08/22 09:43:28;;;;;;;3.67;1.80;;;33.70;57.60;;;;;;5071233;28;20234;-70
2023/08/22 09:46:17;;;;;;;4.10;1.50;;;34.30;54.20;;;;;;5072798;28;20337;-76
2023/08/22 09:49:08;;;;;;;6.60;1.77;;;34.70;51.50;;;;;;5076118;28;20214;-76
2023/08/22 09:51:58;;;;;;;6.03;1.50;;;35.30;46.90;;;;;;5074653;28;20226;-76
2023/08/22 09:54:49;;;;;;;3.13;1.50;;;35.90;41.10;;;;;;5091854;28;20740;-77
2023/08/22 09:57:39;;;;;;;5.03;2.05;;;36.90;32.60;;;;;;5075193;28;20210;-77
2023/08/22 10:00:30;;;;;;;4.03;1.90;;;37.50;30.00;;;;;;5081758;28;20343;-77
2023/08/22 10:03:20;;;;;;;5.80;2.05;;;37.80;26.90;;;;;;5080145;28;20322;-77
2023/08/22 10:06:11;;;;;;;3.38;1.70;;;38.00;24.90;;;;;;5095417;28;20238;-77
2023/08/22 10:09:07;;;;;;;5.13;1.77;;;38.20;23.20;;;;;;5093145;28;20419;-77
2023/08/22 10:12:00;;;;;;;5.22;2.10;;;38.30;22.60;;;;;;5083643;28;20305;-77
2023/08/22 10:14:56;;;;;;;4.00;1.70;;;38.40;21.70;;;;;;5078555;28;20299;-77
2023/08/22 10:17:46;;;;;;;6.97;1.80;;;38.10;23.10;;;;;;5086861;28;20249;-77
2023/08/22 10:20:40;;;;;;;3.88;1.80;;;37.70;25.90;;;;;;5084025;28;20233;-77
2023/08/22 10:23:58;;;;;;;4.75;1.50;;;36.90;30.00;;;;;;5097767;28;20245;-78
2023/08/22 10:27:02;;;;;;;4.28;1.83;;;36.90;31.10;;;;;;5095440;28;20677;-76
2023/08/22 10:30:28;;;;;;;5.65;1.70;;;37.40;29.10;;;;;;5084361;28;20794;-76
2023/08/22 10:33:28;;;;;;;7.20;2.42;;;37.90;25.80;;;;;;5085815;28;20231;-76
2023/08/22 10:36:24;;;;;;;7.85;1.60;;;38.60;23.20;;;;;;5107135;28;20241;-77
2023/08/22 10:39:37;;;;;;;6.82;2.17;;;39.30;26.60;;;;;;5091341;28;20617;-76
2023/08/22 10:42:27;;;;;;;4.95;1.70;;;39.80;16.90;;;;;;5101801;28;20219;-77
2023/08/22 10:45:17;;;;;;;4.40;1.88;;;40.40;12.50;;;;;;5103191;28;20238;-76
2023/08/22 10:48:10;;;;;;;4.60;2.10;;;41.00;8.90;;;;;;5101127;28;20291;-78
2023/08/22 10:51:07;;;;;;;4.65;1.67;;;41.40;6.10;;;;;;5087030;28;20266;-77
2023/08/22 10:54:17;;;;;;;3.63;1.70;;;41.90;3.00;;;;;;5085924;28;20302;-76
2023/08/22 10:57:18;;;;;;;1.70;1.42;;;42.00;2.80;;;;;;5090711;28;20243;-77
2023/08/22 11:00:20;;;;;;;4.78;1.67;;;42.20;1.00;;;;;;5102719;28;20301;-78
2023/08/22 11:03:10;;;;;;;5.53;1.85;;;42.10;1.00;;;;;;5101529;28;20740;-76
2023/08/22 11:05:58;;;;;;;3.80;1.50;;;42.30;1.00;;;;;;5085659;28;20307;-78
2023/08/22 11:08:50;;;;;;;3.67;1.70;;;42.20;1.00;;;;;;5102267;28;20237;-77
2023/08/22 11:11:39;;;;;;;4.63;2.38;;;42.60;1.00;;;;;;5072300;28;20235;-77
2023/08/22 11:14:28;;;;;;;4.03;2.05;;;42.90;1.00;;;;;;5104740;28;20276;-78
2023/08/22 11:17:20;;;;;;;4.53;1.75;;;43.00;1.00;;;;;;5105904;28;20735;-79
2023/08/22 11:20:12;;;;;;;3.95;1.70;;;43.30;1.00;;;;;;5093965;28;20214;-78
2023/08/22 11:23:04;;;;;;;5.03;1.40;;;43.70;1.00;;;;;;5104318;28;20218;-76
2023/08/22 11:25:53;;;;;;;2.15;1.42;;;44.30;1.00;;;;;;5097308;28;21028;-77
2023/08/22 11:28:43;;;;;;;2.97;1.85;;;44.90;1.00;;;;;;5107870;28;20249;-80
2023/08/22 11:31:37;;;;;;;3.17;1.85;;;45.60;1.00;;;;;;5088124;28;20262;-79
2023/08/22 11:34:31;;;;;;;3.65;1.52;;;44.00;1.00;;;;;;5100986;28;20225;-79
2023/08/22 11:37:20;;;;;;;5.28;1.67;;;43.30;1.00;;;;;;5101211;28;20254;-78
2023/08/22 11:40:14;;;;;;;4.38;1.67;;;44.30;1.00;;;;;;5103230;28;20588;-81
2023/08/22 11:43:03;;;;;;;3.92;1.80;;;45.50;1.00;;;;;;5063530;28;20318;-84
2023/08/22 11:45:52;;;;;;;3.58;1.75;;;46.10;1.00;;;;;;5085457;28;20226;-82
2023/08/22 11:48:44;;;;;;;12.77;11.50;;;46.90;1.00;;;;;;5105577;28;20245;-82
2023/08/22 11:51:35;;;;;;;2.55;1.60;;;47.60;1.00;;;;;;5090986;28;20222;-82
2023/08/22 11:54:24;;;;;;;3.65;1.98;;;47.50;1.00;;;;;;5087778;28;20270;-83
2023/08/22 11:57:13;;;;;;;7.72;1.83;;;47.40;1.00;;;;;;5084217;28;20233;-81
2023/08/22 12:00:06;;;;;;;3.17;1.75;;;46.30;1.00;;;;;;5089731;28;20226;-84
2023/08/22 12:03:05;;;;;;;4.03;1.60;;;45.60;1.00;;;;;;5101199;28;20253;-82
2023/08/22 12:05:55;;;;;;;5.95;1.67;;;45.70;1.00;;;;;;5088505;28;20222;-82
2023/08/22 12:08:55;;;;;;;2.40;1.60;;;47.00;1.00;;;;;;5092423;28;20293;-82
2023/08/22 12:11:45;;;;;;;4.05;1.40;;;43.40;1.00;;;;;;5085940;28;20220;-81
2023/08/22 12:14:34;;;;;;;3.53;1.60;;;40.40;14.90;;;;;;5091409;28;20230;-79
2023/08/22 12:17:23;;;;;;;3.13;1.42;;;38.90;27.90;;;;;;5093426;28;20218;-78
2023/08/22 12:20:12;;;;;;;4.13;1.60;;;37.10;40.00;;;;;;5085942;28;20230;-79
2023/08/22 12:23:02;;;;;;;2.25;1.13;;;35.70;51.80;;;;;;5087397;28;20227;-76
2023/08/22 12:25:52;;;;;;;5.53;1.75;;;34.70;60.90;;;;;;5084576;28;20230;-73
2023/08/22 12:28:41;;;;;;;4.18;1.70;;;33.60;69.20;;;;;;5100216;27;20645;-72
2023/08/22 12:31:32;;;;;;;3.47;1.80;;;33.30;76.60;;;;;;5087994;28;20214;-72
2023/08/22 12:34:21;;;;;;;3.97;1.98;;;32.80;83.30;;;;;;5096797;28;20218;-71
2023/08/22 12:37:10;;;;;;;3.65;1.63;;;32.60;84.70;;;;;;5075957;28;20260;-74
2023/08/22 12:39:58;;;;;;;4.55;1.77;;;32.00;88.30;;;;;;5082303;28;20976;-70
2023/08/22 12:42:48;;;;;;;3.15;1.80;;;31.30;91.80;;;;;;5085499;28;20676;-70
2023/08/22 12:45:37;;;;;;;4.05;1.70;;;30.80;93.70;;;;;;5083049;28;20226;-72
2023/08/22 12:48:26;;;;;;;6.07;2.10;;;30.70;96.10;;;;;;5079733;28;20222;-71
2023/08/22 12:51:15;;;;;;;4.22;2.00;;;30.50;96.70;;;;;;5084092;28;20692;-70
2023/08/22 12:54:05;;;;;;;6.10;2.03;;;30.20;97.00;;;;;;5083370;28;20222;-70
2023/08/22 12:56:56;;;;;;;3.63;1.60;;;30.00;98.20;;;;;;5092811;28;20228;-69
2023/08/22 12:59:46;;;;;;;5.03;2.10;;;29.90;99.00;;;;;;5067727;28;20218;-71
2023/08/22 13:02:36;;;;;;;4.18;2.00;;;29.80;99.90;;;;;;5099226;28;20225;-70
2023/08/22 13:05:25;;;;;;;4.30;1.75;;;29.70;99.90;;;;;;5084542;28;20219;-70
2023/08/22 13:08:14;;;;;;;5.63;1.95;;;29.70;99.60;;;;;;5075344;28;20218;-70
2023/08/22 13:11:02;;;;;;;4.90;1.70;;;29.50;99.90;;;;;;5082402;28;20219;-69
2023/08/22 13:13:51;;;;;;;3.65;1.75;;;28.90;99.90;;;;;;5092004;28;20570;-70
2023/08/22 13:16:41;;;;;;;6.72;1.52;;;28.90;99.90;;;;;;5073641;28;20288;-71
2023/08/22 13:19:30;;;;;;;2.42;1.55;;;28.50;99.90;;;;;;5077467;28;20227;-70
2023/08/22 13:22:19;;;;;;;4.57;2.03;;;28.60;99.90;;;;;;5084761;28;20333;-71
2023/08/22 13:25:09;;;;;;;3.63;1.75;;;28.90;99.90;;;;;;5067092;28;20222;-74
2023/08/22 13:27:59;;;;;;;5.43;3.92;;;28.90;99.90;;;;;;5093019;28;20475;-73
2023/08/22 13:30:48;;;;;;;4.25;3.22;;;28.70;99.90;;;;;;5078224;28;20322;-72
2023/08/22 13:33:38;;;;;;;4.50;1.80;;;28.90;99.90;;;;;;5073553;28;20222;-73
2023/08/22 13:36:27;;;;;;;6.57;1.90;;;28.90;99.90;;;;;;5085119;28;20594;-74
2023/08/22 13:39:16;;;;;;;3.58;1.80;;;28.80;99.90;;;;;;5092061;28;20218;-73
2023/08/22 13:42:06;;;;;;;4.93;1.70;;;28.80;99.90;;;;;;5066770;28;20237;-74
2023/08/22 13:44:55;;;;;;;2.90;1.60;;;28.80;99.90;;;;;;5074068;28;20224;-75
2023/08/22 13:47:44;;;;;;;2.63;1.60;;;28.30;99.90;;;;;;5070522;28;21601;-73
2023/08/22 13:50:34;;;;;;;4.70;2.53;;;28.20;99.90;;;;;;5082426;28;20419;-74
2023/08/22 13:53:23;;;;;;;6.18;2.58;;;28.20;99.90;;;;;;5080177;28;20887;-74
2023/08/22 13:56:13;;;;;;;7.30;1.90;;;28.00;99.90;;;;;;5076531;28;20790;-73
2023/08/22 13:59:02;;;;;;;5.43;2.08;;;28.10;99.90;;;;;;5083306;28;20892;-74
2023/08/22 14:01:51;;;;;;;5.22;1.75;;;28.00;99.90;;;;;;5073649;28;20227;-74
2023/08/22 14:04:39;;;;;;;2.08;1.60;;;28.20;99.90;;;;;;5083771;28;20273;-73
2023/08/22 14:07:30;;;;;;;3.78;1.52;;;28.10;99.90;;;;;;5094264;28;20252;-73
2023/08/22 14:10:23;;;;;;;3.80;1.85;;;28.00;99.90;;;;;;5094041;28;20211;-74
2023/08/22 14:13:13;;;;;;;7.00;1.80;;;28.00;99.90;;;;;;5083701;28;20226;-74
2023/08/22 14:16:02;;;;;;;4.90;1.65;;;28.00;99.90;;;;;;5083296;28;20223;-73
2023/08/22 14:18:52;;;;;;;3.95;1.55;;;27.80;99.90;;;;;;5068516;28;20963;-74
2023/08/22 14:21:41;;;;;;;4.93;1.90;;;27.80;99.90;;;;;;5078068;28;20226;-73
2023/08/22 14:24:37;;;;;;;7.43;2.08;;;27.80;99.90;;;;;;5089485;28;20708;-74
2023/08/22 14:27:26;;;;;;;3.60;1.58;;;27.80;99.90;;;;;;5075384;28;20223;-73
2023/08/22 14:30:15;;;;;;;2.53;1.63;;;28.00;99.90;;;;;;5067690;28;20289;-73
2023/08/22 14:33:06;;;;;;;5.43;1.98;;;28.10;99.90;;;;;;5100743;28;20237;-74
2023/08/22 14:35:56;;;;;;;3.22;1.55;;;28.00;99.90;;;;;;5100753;28;20230;-75
2023/08/22 14:38:45;;;;;;;5.30;1.75;;;27.90;99.90;;;;;;5091494;28;20733;-73
2023/08/22 14:41:35;;;;;;;2.88;1.60;;;27.90;99.90;;;;;;5084435;28;20226;-74
2023/08/22 14:44:25;;;;;;;5.40;2.00;;;27.90;99.90;;;;;;5091770;28;20690;-75
2023/08/22 14:47:14;;;;;;;4.55;2.13;;;27.90;99.90;;;;;;5081169;28;20725;-73